sensor_id;sensor_type;location;lat;lon;timestamp;temperature;humidity
33739;DHT22;20063;51.730;11.110;2022-07-29T00:02:13;15.00;99.90
33739;DHT22;20063;51.730;11.110;2022-07-29T00:04:38;15.00;99.90
33739;DHT22;20063;51.730;11.110;2022-07-29T00:07:04;15.00;99.90
33739;DHT22;20063;51.730;11.110;2022-07-29T00:09:31;15.00;99.90
33739;DHT22;20063;51.730;11.110;2022-07-29T00:11:59;14.90;99.90
33739;DHT22;20063;51.730;11.110;2022-07-29T00:14:27;14.90;99.90
33739;DHT22;20063;51.730;11.110;2022-07-29T00:16:52;14.90;99.90
33739;DHT22;20063;51.730;11.110;2022-07-29T00:19:19;15.00;99.90
33739;DHT22;20063;51.730;11.110;2022-07-29T00:21:44;15.00;99.90
33739;DHT22;20063;51.730;11.110;2022-07-29T00:24:10;14.90;99.90
33739;DHT22;20063;51.730;11.110;2022-07-29T00:26:35;15.00;99.90
33739;DHT22;20063;51.730;11.110;2022-07-29T00:29:03;15.00;99.90
33739;DHT22;20063;51.730;11.110;2022-07-29T00:31:28;15.00;99.90
33739;DHT22;20063;51.730;11.110;2022-07-29T00:33:55;14.90;99.90
33739;DHT22;20063;51.730;11.110;2022-07-29T00:36:21;14.90;99.90
33739;DHT22;20063;51.730;11.110;2022-07-29T00:38:48;14.90;99.90
33739;DHT22;20063;51.730;11.110;2022-07-29T00:41:13;14.90;99.90
33739;DHT22;20063;51.730;11.110;2022-07-29T00:43:40;14.90;99.90
33739;DHT22;20063;51.730;11.110;2022-07-29T00:46:06;14.90;99.90
33739;DHT22;20063;51.730;11.110;2022-07-29T00:48:32;14.90;99.90
33739;DHT22;20063;51.730;11.110;2022-07-29T00:50:58;15.00;99.90
33739;DHT22;20063;51.730;11.110;2022-07-29T00:53:25;14.90;99.90
33739;DHT22;20063;51.730;11.110;2022-07-29T00:55:51;15.00;99.90
33739;DHT22;20063;51.730;11.110;2022-07-29T00:58:18;14.90;99.90
33739;DHT22;20063;51.730;11.110;2022-07-29T01:00:44;15.00;99.90
33739;DHT22;20063;51.730;11.110;2022-07-29T01:03:11;14.90;99.90
33739;DHT22;20063;51.730;11.110;2022-07-29T01:05:37;14.90;99.90
33739;DHT22;20063;51.730;11.110;2022-07-29T01:08:03;14.90;99.90
33739;DHT22;20063;51.730;11.110;2022-07-29T01:10:29;14.90;99.90
33739;DHT22;20063;51.730;11.110;2022-07-29T01:12:57;14.90;99.90
33739;DHT22;20063;51.730;11.110;2022-07-29T01:15:24;14.90;99.90
33739;DHT22;20063;51.730;11.110;2022-07-29T01:18:11;14.90;99.90
33739;DHT22;20063;51.730;11.110;2022-07-29T01:24:03;15.00;99.90
33739;DHT22;20063;51.730;11.110;2022-07-29T01:26:52;14.90;99.90
33739;DHT22;20063;51.730;11.110;2022-07-29T01:32:11;15.00;99.90
33739;DHT22;20063;51.730;11.110;2022-07-29T01:34:58;15.10;99.90
33739;DHT22;20063;51.730;11.110;2022-07-29T01:37:29;15.10;99.90
33739;DHT22;20063;51.730;11.110;2022-07-29T01:40:00;15.10;99.90
33739;DHT22;20063;51.730;11.110;2022-07-29T01:45:12;15.00;99.90
33739;DHT22;20063;51.730;11.110;2022-07-29T01:47:43;15.00;99.90
33739;DHT22;20063;51.730;11.110;2022-07-29T01:50:13;15.00;99.90
33739;DHT22;20063;51.730;11.110;2022-07-29T01:52:46;15.00;99.90
33739;DHT22;20063;51.730;11.110;2022-07-29T01:55:16;14.90;99.90
33739;DHT22;20063;51.730;11.110;2022-07-29T01:57:47;14.90;99.90
33739;DHT22;20063;51.730;11.110;2022-07-29T02:00:14;15.00;99.90
33739;DHT22;20063;51.730;11.110;2022-07-29T02:02:42;15.00;99.90
33739;DHT22;20063;51.730;11.110;2022-07-29T02:05:12;14.90;99.90
33739;DHT22;20063;51.730;11.110;2022-07-29T02:07:40;14.90;99.90
33739;DHT22;20063;51.730;11.110;2022-07-29T02:10:07;14.90;99.90
33739;DHT22;20063;51.730;11.110;2022-07-29T02:12:35;14.90;99.90
33739;DHT22;20063;51.730;11.110;2022-07-29T02:15:03;14.90;99.90
33739;DHT22;20063;51.730;11.110;2022-07-29T02:17:47;14.90;99.90
33739;DHT22;20063;51.730;11.110;2022-07-29T02:20:13;14.90;99.90
33739;DHT22;20063;51.730;11.110;2022-07-29T02:22:40;14.90;99.90
33739;DHT22;20063;51.730;11.110;2022-07-29T02:25:08;14.90;99.90
33739;DHT22;20063;51.730;11.110;2022-07-29T02:27:34;14.90;99.90
33739;DHT22;20063;51.730;11.110;2022-07-29T02:30:02;14.90;99.90
33739;DHT22;20063;51.730;11.110;2022-07-29T02:32:28;15.00;99.90
33739;DHT22;20063;51.730;11.110;2022-07-29T02:34:56;15.00;99.90
33739;DHT22;20063;51.730;11.110;2022-07-29T02:37:24;15.00;99.90
33739;DHT22;20063;51.730;11.110;2022-07-29T02:39:52;15.00;99.90
33739;DHT22;20063;51.730;11.110;2022-07-29T02:42:18;15.00;99.90
33739;DHT22;20063;51.730;11.110;2022-07-29T02:44:46;15.10;99.90
33739;DHT22;20063;51.730;11.110;2022-07-29T02:47:17;15.10;99.90
33739;DHT22;20063;51.730;11.110;2022-07-29T02:50:11;15.10;99.90
33739;DHT22;20063;51.730;11.110;2022-07-29T02:52:42;15.10;99.90
33739;DHT22;20063;51.730;11.110;2022-07-29T02:58:40;15.00;99.90
33739;DHT22;20063;51.730;11.110;2022-07-29T03:01:14;15.00;99.90
33739;DHT22;20063;51.730;11.110;2022-07-29T03:03:45;15.00;99.90
33739;DHT22;20063;51.730;11.110;2022-07-29T03:06:13;14.90;99.90
33739;DHT22;20063;51.730;11.110;2022-07-29T03:08:40;15.00;99.90
33739;DHT22;20063;51.730;11.110;2022-07-29T03:11:08;15.00;99.90
33739;DHT22;20063;51.730;11.110;2022-07-29T03:13:35;14.90;99.90
33739;DHT22;20063;51.730;11.110;2022-07-29T03:16:01;14.90;99.90
33739;DHT22;20063;51.730;11.110;2022-07-29T03:18:27;14.90;99.90
33739;DHT22;20063;51.730;11.110;2022-07-29T03:20:52;14.90;99.90
33739;DHT22;20063;51.730;11.110;2022-07-29T03:23:22;14.90;99.90
33739;DHT22;20063;51.730;11.110;2022-07-29T03:25:52;14.90;99.90
33739;DHT22;20063;51.730;11.110;2022-07-29T03:28:18;14.90;99.90
33739;DHT22;20063;51.730;11.110;2022-07-29T03:30:46;14.90;99.90
33739;DHT22;20063;51.730;11.110;2022-07-29T03:33:12;14.90;99.90
33739;DHT22;20063;51.730;11.110;2022-07-29T03:35:37;14.80;99.90
33739;DHT22;20063;51.730;11.110;2022-07-29T03:38:03;14.90;99.90
33739;DHT22;20063;51.730;11.110;2022-07-29T03:40:37;14.80;99.90
33739;DHT22;20063;51.730;11.110;2022-07-29T03:43:03;14.90;99.90
33739;DHT22;20063;51.730;11.110;2022-07-29T03:45:31;14.90;99.90
33739;DHT22;20063;51.730;11.110;2022-07-29T03:48:06;14.90;99.90
33739;DHT22;20063;51.730;11.110;2022-07-29T03:50:34;14.90;99.90
33739;DHT22;20063;51.730;11.110;2022-07-29T03:53:00;14.90;99.90
33739;DHT22;20063;51.730;11.110;2022-07-29T03:55:28;14.90;99.90
33739;DHT22;20063;51.730;11.110;2022-07-29T03:57:55;14.80;99.90
33739;DHT22;20063;51.730;11.110;2022-07-29T04:00:24;14.90;99.90
33739;DHT22;20063;51.730;11.110;2022-07-29T04:02:50;14.80;99.90
33739;DHT22;20063;51.730;11.110;2022-07-29T04:05:17;14.80;99.90
33739;DHT22;20063;51.730;11.110;2022-07-29T04:07:46;14.80;99.90
33739;DHT22;20063;51.730;11.110;2022-07-29T04:10:13;14.80;99.90
33739;DHT22;20063;51.730;11.110;2022-07-29T04:12:38;14.80;99.90
33739;DHT22;20063;51.730;11.110;2022-07-29T04:15:04;14.80;99.90
33739;DHT22;20063;51.730;11.110;2022-07-29T04:17:30;14.90;99.90
33739;DHT22;20063;51.730;11.110;2022-07-29T04:19:56;14.90;99.90
33739;DHT22;20063;51.730;11.110;2022-07-29T04:22:21;14.90;99.90
33739;DHT22;20063;51.730;11.110;2022-07-29T04:24:48;14.90;99.90
33739;DHT22;20063;51.730;11.110;2022-07-29T04:27:14;14.90;99.90
33739;DHT22;20063;51.730;11.110;2022-07-29T04:29:39;14.90;99.90
33739;DHT22;20063;51.730;11.110;2022-07-29T04:32:05;14.90;99.90
33739;DHT22;20063;51.730;11.110;2022-07-29T04:34:31;14.90;99.90
33739;DHT22;20063;51.730;11.110;2022-07-29T04:36:57;14.90;99.90
33739;DHT22;20063;51.730;11.110;2022-07-29T04:39:23;14.90;99.90
33739;DHT22;20063;51.730;11.110;2022-07-29T04:41:50;15.00;99.90
33739;DHT22;20063;51.730;11.110;2022-07-29T04:44:15;15.00;99.90
33739;DHT22;20063;51.730;11.110;2022-07-29T04:46:41;15.10;99.90
33739;DHT22;20063;51.730;11.110;2022-07-29T04:49:07;15.10;99.90
33739;DHT22;20063;51.730;11.110;2022-07-29T04:51:33;15.10;99.90
33739;DHT22;20063;51.730;11.110;2022-07-29T04:53:59;15.20;99.90
33739;DHT22;20063;51.730;11.110;2022-07-29T04:56:26;15.20;99.90
33739;DHT22;20063;51.730;11.110;2022-07-29T04:58:51;15.20;99.90
33739;DHT22;20063;51.730;11.110;2022-07-29T05:01:17;15.20;99.90
33739;DHT22;20063;51.730;11.110;2022-07-29T05:03:43;15.20;99.90
33739;DHT22;20063;51.730;11.110;2022-07-29T05:06:09;15.20;99.90
33739;DHT22;20063;51.730;11.110;2022-07-29T05:08:34;15.20;99.90
33739;DHT22;20063;51.730;11.110;2022-07-29T05:11:00;15.20;99.90
33739;DHT22;20063;51.730;11.110;2022-07-29T05:13:26;15.20;99.90
33739;DHT22;20063;51.730;11.110;2022-07-29T05:15:54;15.30;99.90
33739;DHT22;20063;51.730;11.110;2022-07-29T05:18:20;15.30;99.90
33739;DHT22;20063;51.730;11.110;2022-07-29T05:20:45;15.30;99.90
33739;DHT22;20063;51.730;11.110;2022-07-29T05:23:11;15.30;99.90
33739;DHT22;20063;51.730;11.110;2022-07-29T05:25:38;15.30;99.90
33739;DHT22;20063;51.730;11.110;2022-07-29T05:28:03;15.30;99.90
33739;DHT22;20063;51.730;11.110;2022-07-29T05:30:29;15.40;99.90
33739;DHT22;20063;51.730;11.110;2022-07-29T05:32:55;15.40;99.90
33739;DHT22;20063;51.730;11.110;2022-07-29T05:35:20;15.40;99.90
33739;DHT22;20063;51.730;11.110;2022-07-29T05:37:46;15.40;99.90
33739;DHT22;20063;51.730;11.110;2022-07-29T05:40:12;15.50;99.90
33739;DHT22;20063;51.730;11.110;2022-07-29T05:42:37;15.40;99.90
33739;DHT22;20063;51.730;11.110;2022-07-29T05:45:03;15.50;99.90
33739;DHT22;20063;51.730;11.110;2022-07-29T05:47:29;15.50;99.90
33739;DHT22;20063;51.730;11.110;2022-07-29T05:49:54;15.60;99.90
33739;DHT22;20063;51.730;11.110;2022-07-29T05:52:20;15.50;99.90
33739;DHT22;20063;51.730;11.110;2022-07-29T05:54:46;15.60;99.90
33739;DHT22;20063;51.730;11.110;2022-07-29T05:57:19;15.70;99.90
33739;DHT22;20063;51.730;11.110;2022-07-29T05:59:45;15.70;99.90
33739;DHT22;20063;51.730;11.110;2022-07-29T06:02:11;15.80;99.90
33739;DHT22;20063;51.730;11.110;2022-07-29T06:04:37;15.80;99.90
33739;DHT22;20063;51.730;11.110;2022-07-29T06:07:03;15.90;99.90
33739;DHT22;20063;51.730;11.110;2022-07-29T06:09:29;15.90;99.90
33739;DHT22;20063;51.730;11.110;2022-07-29T06:11:55;15.90;99.90
33739;DHT22;20063;51.730;11.110;2022-07-29T06:14:20;15.90;99.90
33739;DHT22;20063;51.730;11.110;2022-07-29T06:16:46;16.00;99.90
33739;DHT22;20063;51.730;11.110;2022-07-29T06:19:11;16.00;99.90
33739;DHT22;20063;51.730;11.110;2022-07-29T06:21:44;16.00;99.90
33739;DHT22;20063;51.730;11.110;2022-07-29T06:24:14;16.10;99.90
33739;DHT22;20063;51.730;11.110;2022-07-29T06:26:40;16.10;99.90
33739;DHT22;20063;51.730;11.110;2022-07-29T06:29:07;16.10;99.90
33739;DHT22;20063;51.730;11.110;2022-07-29T06:31:34;16.20;99.90
33739;DHT22;20063;51.730;11.110;2022-07-29T06:33:59;16.20;99.90
33739;DHT22;20063;51.730;11.110;2022-07-29T06:36:26;16.30;99.90
33739;DHT22;20063;51.730;11.110;2022-07-29T06:38:51;16.30;99.90
33739;DHT22;20063;51.730;11.110;2022-07-29T06:41:17;16.30;99.90
33739;DHT22;20063;51.730;11.110;2022-07-29T06:43:44;16.30;99.90
33739;DHT22;20063;51.730;11.110;2022-07-29T06:46:14;16.40;99.90
33739;DHT22;20063;51.730;11.110;2022-07-29T06:48:40;16.40;99.90
33739;DHT22;20063;51.730;11.110;2022-07-29T06:51:07;16.50;99.90
33739;DHT22;20063;51.730;11.110;2022-07-29T06:53:34;16.60;99.90
33739;DHT22;20063;51.730;11.110;2022-07-29T06:56:01;16.60;99.90
33739;DHT22;20063;51.730;11.110;2022-07-29T06:58:27;16.60;99.90
33739;DHT22;20063;51.730;11.110;2022-07-29T07:00:53;16.70;99.90
33739;DHT22;20063;51.730;11.110;2022-07-29T07:03:19;16.80;99.90
33739;DHT22;20063;51.730;11.110;2022-07-29T07:05:45;16.90;99.90
33739;DHT22;20063;51.730;11.110;2022-07-29T07:08:11;17.00;99.90
33739;DHT22;20063;51.730;11.110;2022-07-29T07:10:37;17.10;99.90
33739;DHT22;20063;51.730;11.110;2022-07-29T07:13:04;17.20;99.90
33739;DHT22;20063;51.730;11.110;2022-07-29T07:15:30;17.30;99.90
33739;DHT22;20063;51.730;11.110;2022-07-29T07:17:56;17.30;99.90
33739;DHT22;20063;51.730;11.110;2022-07-29T07:20:23;17.40;99.90
33739;DHT22;20063;51.730;11.110;2022-07-29T07:22:48;17.50;99.90
33739;DHT22;20063;51.730;11.110;2022-07-29T07:25:14;17.50;99.90
33739;DHT22;20063;51.730;11.110;2022-07-29T07:27:41;17.60;99.90
33739;DHT22;20063;51.730;11.110;2022-07-29T07:30:07;17.60;99.90
33739;DHT22;20063;51.730;11.110;2022-07-29T07:32:33;17.70;99.90
33739;DHT22;20063;51.730;11.110;2022-07-29T07:34:59;17.80;99.90
33739;DHT22;20063;51.730;11.110;2022-07-29T07:37:25;17.80;99.90
33739;DHT22;20063;51.730;11.110;2022-07-29T07:39:51;17.80;99.90
33739;DHT22;20063;51.730;11.110;2022-07-29T07:42:18;17.80;99.90
33739;DHT22;20063;51.730;11.110;2022-07-29T07:44:44;17.90;99.90
33739;DHT22;20063;51.730;11.110;2022-07-29T07:47:12;17.90;99.90
33739;DHT22;20063;51.730;11.110;2022-07-29T07:49:38;17.90;99.90
33739;DHT22;20063;51.730;11.110;2022-07-29T07:52:05;18.00;99.90
33739;DHT22;20063;51.730;11.110;2022-07-29T07:54:30;18.00;99.90
33739;DHT22;20063;51.730;11.110;2022-07-29T07:56:56;18.10;99.90
33739;DHT22;20063;51.730;11.110;2022-07-29T07:59:22;18.10;99.90
33739;DHT22;20063;51.730;11.110;2022-07-29T08:01:48;18.20;99.90
33739;DHT22;20063;51.730;11.110;2022-07-29T08:04:14;18.20;99.90
33739;DHT22;20063;51.730;11.110;2022-07-29T08:06:39;18.20;99.90
33739;DHT22;20063;51.730;11.110;2022-07-29T08:09:05;18.20;99.90
33739;DHT22;20063;51.730;11.110;2022-07-29T08:11:31;18.30;99.90
33739;DHT22;20063;51.730;11.110;2022-07-29T08:13:56;18.30;99.90
33739;DHT22;20063;51.730;11.110;2022-07-29T08:16:22;18.40;99.90
33739;DHT22;20063;51.730;11.110;2022-07-29T08:18:50;18.50;99.90
33739;DHT22;20063;51.730;11.110;2022-07-29T08:21:17;18.50;99.90
33739;DHT22;20063;51.730;11.110;2022-07-29T08:23:46;18.50;99.90
33739;DHT22;20063;51.730;11.110;2022-07-29T08:26:14;18.60;99.90
33739;DHT22;20063;51.730;11.110;2022-07-29T08:28:41;18.60;99.90
33739;DHT22;20063;51.730;11.110;2022-07-29T08:31:10;18.70;99.90
33739;DHT22;20063;51.730;11.110;2022-07-29T08:33:35;18.70;99.90
33739;DHT22;20063;51.730;11.110;2022-07-29T08:36:02;18.80;99.90
33739;DHT22;20063;51.730;11.110;2022-07-29T08:38:27;18.90;99.90
33739;DHT22;20063;51.730;11.110;2022-07-29T08:40:53;19.00;99.90
33739;DHT22;20063;51.730;11.110;2022-07-29T08:43:19;19.10;99.90
33739;DHT22;20063;51.730;11.110;2022-07-29T08:45:49;19.10;99.90
33739;DHT22;20063;51.730;11.110;2022-07-29T08:48:21;19.20;99.90
33739;DHT22;20063;51.730;11.110;2022-07-29T08:50:51;19.30;99.90
33739;DHT22;20063;51.730;11.110;2022-07-29T08:53:18;19.40;99.90
33739;DHT22;20063;51.730;11.110;2022-07-29T08:55:47;19.50;99.90
33739;DHT22;20063;51.730;11.110;2022-07-29T08:58:16;19.50;99.90
33739;DHT22;20063;51.730;11.110;2022-07-29T09:00:45;19.60;99.90
33739;DHT22;20063;51.730;11.110;2022-07-29T09:03:15;19.60;99.90
33739;DHT22;20063;51.730;11.110;2022-07-29T09:05:46;19.60;99.90
33739;DHT22;20063;51.730;11.110;2022-07-29T09:08:12;19.70;99.90
33739;DHT22;20063;51.730;11.110;2022-07-29T09:10:39;19.70;99.90
33739;DHT22;20063;51.730;11.110;2022-07-29T09:13:04;19.80;99.90
33739;DHT22;20063;51.730;11.110;2022-07-29T09:15:30;19.80;99.90
33739;DHT22;20063;51.730;11.110;2022-07-29T09:17:56;19.80;99.90
33739;DHT22;20063;51.730;11.110;2022-07-29T09:20:24;19.90;99.90
33739;DHT22;20063;51.730;11.110;2022-07-29T09:22:51;19.90;99.90
33739;DHT22;20063;51.730;11.110;2022-07-29T09:25:36;20.00;99.90
33739;DHT22;20063;51.730;11.110;2022-07-29T09:28:06;20.20;99.90
33739;DHT22;20063;51.730;11.110;2022-07-29T09:30:33;20.30;99.90
33739;DHT22;20063;51.730;11.110;2022-07-29T09:33:05;20.40;99.90
33739;DHT22;20063;51.730;11.110;2022-07-29T09:35:30;20.50;99.90
33739;DHT22;20063;51.730;11.110;2022-07-29T09:37:57;20.60;99.90
33739;DHT22;20063;51.730;11.110;2022-07-29T09:40:27;20.60;99.90
33739;DHT22;20063;51.730;11.110;2022-07-29T09:42:53;20.70;99.90
33739;DHT22;20063;51.730;11.110;2022-07-29T09:45:31;20.80;99.90
33739;DHT22;20063;51.730;11.110;2022-07-29T09:47:58;20.90;99.90
33739;DHT22;20063;51.730;11.110;2022-07-29T09:50:39;20.90;99.90
33739;DHT22;20063;51.730;11.110;2022-07-29T09:53:05;21.00;99.90
33739;DHT22;20063;51.730;11.110;2022-07-29T09:55:31;21.10;99.90
33739;DHT22;20063;51.730;11.110;2022-07-29T09:58:18;21.20;99.90
33739;DHT22;20063;51.730;11.110;2022-07-29T10:00:46;21.30;99.90
33739;DHT22;20063;51.730;11.110;2022-07-29T10:03:13;21.40;99.90
33739;DHT22;20063;51.730;11.110;2022-07-29T10:05:39;21.40;99.90
33739;DHT22;20063;51.730;11.110;2022-07-29T10:08:06;21.50;99.90
33739;DHT22;20063;51.730;11.110;2022-07-29T10:10:36;21.70;99.90
33739;DHT22;20063;51.730;11.110;2022-07-29T10:13:04;21.70;99.90
33739;DHT22;20063;51.730;11.110;2022-07-29T10:15:33;21.80;99.90
33739;DHT22;20063;51.730;11.110;2022-07-29T10:18:03;21.80;99.80
33739;DHT22;20063;51.730;11.110;2022-07-29T10:20:28;21.90;98.40
33739;DHT22;20063;51.730;11.110;2022-07-29T10:22:54;21.90;98.10
33739;DHT22;20063;51.730;11.110;2022-07-29T10:25:21;22.00;98.60
33739;DHT22;20063;51.730;11.110;2022-07-29T10:27:49;22.00;96.50
33739;DHT22;20063;51.730;11.110;2022-07-29T10:30:16;22.10;96.80
33739;DHT22;20063;51.730;11.110;2022-07-29T10:32:54;22.10;96.30
33739;DHT22;20063;51.730;11.110;2022-07-29T10:35:46;22.20;96.20
33739;DHT22;20063;51.730;11.110;2022-07-29T10:41:29;22.20;92.20
33739;DHT22;20063;51.730;11.110;2022-07-29T10:44:08;22.20;93.20
33739;DHT22;20063;51.730;11.110;2022-07-29T10:46:36;22.30;93.10
33739;DHT22;20063;51.730;11.110;2022-07-29T10:49:21;22.30;91.80
33739;DHT22;20063;51.730;11.110;2022-07-29T10:52:04;22.40;90.70
33739;DHT22;20063;51.730;11.110;2022-07-29T10:59:47;22.50;82.90
33739;DHT22;20063;51.730;11.110;2022-07-29T11:02:44;22.60;82.50
33739;DHT22;20063;51.730;11.110;2022-07-29T11:07:39;22.70;76.40
33739;DHT22;20063;51.730;11.110;2022-07-29T11:15:13;22.80;82.90
33739;DHT22;20063;51.730;11.110;2022-07-29T11:20:46;22.90;75.80
33739;DHT22;20063;51.730;11.110;2022-07-29T11:29:06;23.00;70.90
33739;DHT22;20063;51.730;11.110;2022-07-29T11:31:39;23.00;70.30
33739;DHT22;20063;51.730;11.110;2022-07-29T11:34:25;23.00;67.70
33739;DHT22;20063;51.730;11.110;2022-07-29T11:45:11;23.20;59.80
33739;DHT22;20063;51.730;11.110;2022-07-29T11:47:42;23.10;60.90
33739;DHT22;20063;51.730;11.110;2022-07-29T11:50:13;23.20;57.70
33739;DHT22;20063;51.730;11.110;2022-07-29T11:52:42;23.20;58.90
33739;DHT22;20063;51.730;11.110;2022-07-29T11:55:19;23.20;59.50
33739;DHT22;20063;51.730;11.110;2022-07-29T11:57:50;23.20;60.20
33739;DHT22;20063;51.730;11.110;2022-07-29T12:02:53;23.20;59.80
33739;DHT22;20063;51.730;11.110;2022-07-29T12:05:19;23.20;58.10
33739;DHT22;20063;51.730;11.110;2022-07-29T12:07:46;23.30;59.40
33739;DHT22;20063;51.730;11.110;2022-07-29T12:10:12;23.30;59.10
33739;DHT22;20063;51.730;11.110;2022-07-29T12:12:38;23.50;58.70
33739;DHT22;20063;51.730;11.110;2022-07-29T12:15:14;23.60;59.70
33739;DHT22;20063;51.730;11.110;2022-07-29T12:17:40;23.80;59.50
33739;DHT22;20063;51.730;11.110;2022-07-29T12:20:06;23.80;57.10
33739;DHT22;20063;51.730;11.110;2022-07-29T12:22:37;23.90;56.20
33739;DHT22;20063;51.730;11.110;2022-07-29T12:25:11;23.90;56.40
33739;DHT22;20063;51.730;11.110;2022-07-29T12:27:37;23.90;55.00
33739;DHT22;20063;51.730;11.110;2022-07-29T12:30:12;23.90;54.90
33739;DHT22;20063;51.730;11.110;2022-07-29T12:32:41;23.90;54.80
33739;DHT22;20063;51.730;11.110;2022-07-29T12:35:18;24.00;54.40
33739;DHT22;20063;51.730;11.110;2022-07-29T12:37:48;24.10;53.30
33739;DHT22;20063;51.730;11.110;2022-07-29T12:40:16;24.20;52.90
33739;DHT22;20063;51.730;11.110;2022-07-29T12:45:31;24.40;51.80
33739;DHT22;20063;51.730;11.110;2022-07-29T12:47:56;24.40;51.20
33739;DHT22;20063;51.730;11.110;2022-07-29T12:50:22;24.40;52.20
33739;DHT22;20063;51.730;11.110;2022-07-29T12:52:48;24.50;52.10
33739;DHT22;20063;51.730;11.110;2022-07-29T12:55:14;24.50;51.00
33739;DHT22;20063;51.730;11.110;2022-07-29T12:57:50;24.50;50.50
33739;DHT22;20063;51.730;11.110;2022-07-29T13:00:22;24.60;50.80
33739;DHT22;20063;51.730;11.110;2022-07-29T13:02:57;24.70;50.30
33739;DHT22;20063;51.730;11.110;2022-07-29T13:05:23;24.70;49.70
33739;DHT22;20063;51.730;11.110;2022-07-29T13:07:50;24.70;50.60
33739;DHT22;20063;51.730;11.110;2022-07-29T13:10:21;24.70;50.00
33739;DHT22;20063;51.730;11.110;2022-07-29T13:13:07;24.70;50.70
33739;DHT22;20063;51.730;11.110;2022-07-29T13:15:35;24.70;50.50
33739;DHT22;20063;51.730;11.110;2022-07-29T13:18:01;24.70;50.30
33739;DHT22;20063;51.730;11.110;2022-07-29T13:20:28;24.70;48.10
33739;DHT22;20063;51.730;11.110;2022-07-29T13:23:00;24.70;48.60
33739;DHT22;20063;51.730;11.110;2022-07-29T13:25:30;24.80;48.90
33739;DHT22;20063;51.730;11.110;2022-07-29T13:27:57;24.80;49.30
33739;DHT22;20063;51.730;11.110;2022-07-29T13:30:23;24.90;48.50
33739;DHT22;20063;51.730;11.110;2022-07-29T13:32:49;25.00;48.00
33739;DHT22;20063;51.730;11.110;2022-07-29T13:35:15;25.00;47.70
33739;DHT22;20063;51.730;11.110;2022-07-29T13:37:41;25.10;47.60
33739;DHT22;20063;51.730;11.110;2022-07-29T13:40:08;25.10;46.30
33739;DHT22;20063;51.730;11.110;2022-07-29T13:42:34;25.10;47.20
33739;DHT22;20063;51.730;11.110;2022-07-29T13:45:00;25.10;46.80
33739;DHT22;20063;51.730;11.110;2022-07-29T13:47:27;25.20;46.50
33739;DHT22;20063;51.730;11.110;2022-07-29T13:49:52;25.30;46.90
33739;DHT22;20063;51.730;11.110;2022-07-29T13:52:19;25.30;47.30
33739;DHT22;20063;51.730;11.110;2022-07-29T13:54:45;25.30;47.40
33739;DHT22;20063;51.730;11.110;2022-07-29T13:57:12;25.40;46.80
33739;DHT22;20063;51.730;11.110;2022-07-29T13:59:40;25.50;46.10
33739;DHT22;20063;51.730;11.110;2022-07-29T14:02:06;25.60;45.90
33739;DHT22;20063;51.730;11.110;2022-07-29T14:04:32;25.90;46.40
33739;DHT22;20063;51.730;11.110;2022-07-29T14:06:57;26.00;45.70
33739;DHT22;20063;51.730;11.110;2022-07-29T14:09:23;26.00;45.20
33739;DHT22;20063;51.730;11.110;2022-07-29T14:11:48;25.90;44.90
33739;DHT22;20063;51.730;11.110;2022-07-29T14:14:16;25.80;45.10
33739;DHT22;20063;51.730;11.110;2022-07-29T14:16:41;25.70;45.80
33739;DHT22;20063;51.730;11.110;2022-07-29T14:19:07;25.70;45.70
33739;DHT22;20063;51.730;11.110;2022-07-29T14:21:33;25.70;46.00
33739;DHT22;20063;51.730;11.110;2022-07-29T14:24:00;25.70;45.60
33739;DHT22;20063;51.730;11.110;2022-07-29T14:26:25;25.70;45.50
33739;DHT22;20063;51.730;11.110;2022-07-29T14:28:51;25.70;44.30
33739;DHT22;20063;51.730;11.110;2022-07-29T14:31:17;25.80;44.80
33739;DHT22;20063;51.730;11.110;2022-07-29T14:33:42;25.80;44.50
33739;DHT22;20063;51.730;11.110;2022-07-29T14:36:08;25.80;44.80
33739;DHT22;20063;51.730;11.110;2022-07-29T14:38:35;25.80;44.40
33739;DHT22;20063;51.730;11.110;2022-07-29T14:41:01;25.80;45.00
33739;DHT22;20063;51.730;11.110;2022-07-29T14:43:26;25.80;44.90
33739;DHT22;20063;51.730;11.110;2022-07-29T14:45:52;25.80;45.00
33739;DHT22;20063;51.730;11.110;2022-07-29T14:48:17;25.90;44.70
33739;DHT22;20063;51.730;11.110;2022-07-29T14:50:43;26.00;43.80
33739;DHT22;20063;51.730;11.110;2022-07-29T14:53:09;26.00;43.60
33739;DHT22;20063;51.730;11.110;2022-07-29T14:55:34;26.00;44.10
33739;DHT22;20063;51.730;11.110;2022-07-29T14:58:00;26.00;44.50
33739;DHT22;20063;51.730;11.110;2022-07-29T15:00:26;26.00;44.70
33739;DHT22;20063;51.730;11.110;2022-07-29T15:02:52;26.10;44.20
33739;DHT22;20063;51.730;11.110;2022-07-29T15:05:18;26.10;43.70
33739;DHT22;20063;51.730;11.110;2022-07-29T15:07:43;26.10;43.90
33739;DHT22;20063;51.730;11.110;2022-07-29T15:10:09;26.10;43.80
33739;DHT22;20063;51.730;11.110;2022-07-29T15:12:34;26.10;43.60
33739;DHT22;20063;51.730;11.110;2022-07-29T15:15:00;26.20;43.10
33739;DHT22;20063;51.730;11.110;2022-07-29T15:17:26;26.10;42.80
33739;DHT22;20063;51.730;11.110;2022-07-29T15:19:51;26.00;42.90
33739;DHT22;20063;51.730;11.110;2022-07-29T15:22:17;26.00;43.60
33739;DHT22;20063;51.730;11.110;2022-07-29T15:24:43;26.20;42.90
33739;DHT22;20063;51.730;11.110;2022-07-29T15:27:10;26.20;43.00
33739;DHT22;20063;51.730;11.110;2022-07-29T15:29:42;26.30;43.60
33739;DHT22;20063;51.730;11.110;2022-07-29T15:32:08;26.30;43.10
33739;DHT22;20063;51.730;11.110;2022-07-29T15:34:34;26.30;43.60
33739;DHT22;20063;51.730;11.110;2022-07-29T15:37:00;26.30;43.20
33739;DHT22;20063;51.730;11.110;2022-07-29T15:39:26;26.30;43.40
33739;DHT22;20063;51.730;11.110;2022-07-29T15:41:53;26.30;43.10
33739;DHT22;20063;51.730;11.110;2022-07-29T15:44:19;26.30;42.60
33739;DHT22;20063;51.730;11.110;2022-07-29T15:46:45;26.30;42.00
33739;DHT22;20063;51.730;11.110;2022-07-29T15:49:36;26.30;42.80
33739;DHT22;20063;51.730;11.110;2022-07-29T15:52:05;26.20;43.20
33739;DHT22;20063;51.730;11.110;2022-07-29T15:54:38;26.20;43.90
33739;DHT22;20063;51.730;11.110;2022-07-29T15:57:06;26.20;43.80
33739;DHT22;20063;51.730;11.110;2022-07-29T15:59:32;26.20;43.40
33739;DHT22;20063;51.730;11.110;2022-07-29T16:01:58;26.30;43.00
33739;DHT22;20063;51.730;11.110;2022-07-29T16:04:24;26.30;43.30
33739;DHT22;20063;51.730;11.110;2022-07-29T16:06:49;26.30;42.90
33739;DHT22;20063;51.730;11.110;2022-07-29T16:09:16;26.40;43.20
33739;DHT22;20063;51.730;11.110;2022-07-29T16:11:43;26.50;43.20